This is the latest recevied weather packets stored in our database for station/object KC7KGF. If no packets are shown the sender has not sent any weather packets the latest 10 day(s).
| Time | Temp. | Humidity | Pressure | Rain* | Wind** | Luminosity | Snow |
|---|---|---|---|---|---|---|---|
| 1777754136 | 22.22° C | 27% | 1020.6 hPa | 0 mm | - | - | - |
| 1777752346 | 21.67° C | 25% | 1020.9 hPa | 0 mm | - | - | - |
| 1777750545 | 22.22° C | 27% | 1021.4 hPa | 0 mm | - | - | - |
| 1777748734 | 19.44° C | 29% | 1021.9 hPa | 0 mm | - | - | - |
| 1777746934 | 20.56° C | 29% | 1022.2 hPa | 0 mm | - | - | - |
| 1777745144 | 20.56° C | 32% | 1022.6 hPa | 0 mm | - | - | - |
| 1777743343 | 19.44° C | 33% | 1022.6 hPa | 0 mm | - | - | - |
| 1777741526 | 18.33° C | 37% | 1022.6 hPa | 0 mm | - | - | - |
| 1777739733 | 17.78° C | 37% | 1022.7 hPa | 0 mm | - | - | - |
| 1777737930 | 17.22° C | 39% | 1022.4 hPa | 0 mm | - | - | - |
| 1777736135 | 16.67° C | 40% | 1022.4 hPa | 0 mm | - | - | - |
| 1777734333 | 15.56° C | 41% | 1022.4 hPa | 0 mm | - | - | - |
| 1777732567 | 15° C | 42% | 1022 hPa | 0 mm | - | - | - |
| 1777730732 | 13.33° C | 44% | 1021.7 hPa | 0 mm | - | - | - |
| 1777728932 | 11.11° C | 48% | 1021.3 hPa | 0 mm | - | - | - |
| 1777727143 | 7.22° C | 58% | 1021.1 hPa | 0 mm | - | - | - |
| 1777725344 | 8.33° C | 51% | 1020.8 hPa | 0 mm | - | - | - |
| 1777723534 | 10° C | 47% | 1020.6 hPa | 0 mm | - | - | - |
| 1777721734 | 11.11° C | 46% | 1020.8 hPa | 0 mm | - | - | - |
| 1777719942 | 11.11° C | 46% | 1020.8 hPa | 0 mm | - | - | - |
| 1777718142 | 11.11° C | 44% | 1021 hPa | 0 mm | - | - | - |
| 1777716333 | 12.22° C | 41% | 1021.2 hPa | 0 mm | - | - | - |
| 1777714533 | 11.11° C | 42% | 1020.8 hPa | 0 mm | - | - | - |
| 1777712744 | 9.44° C | 44% | 1020.7 hPa | 0 mm | - | - | - |
| 1777710944 | 10.56° C | 43% | 1020.6 hPa | 0 mm | - | - | - |
* Rain latest hour (hover to see other rain measurements)
** Current wind speed in m/s (hover to see current wind gust speed)